sensor_id;sensor_type;location;lat;lon;timestamp;pressure;altitude;pressure_sealevel;temperature;humidity
72024;BME280;59889;50.700;5.440;2022-10-13T00:01:23;100487.98;;;22.20;33.54
72024;BME280;59889;50.700;5.440;2022-10-13T00:03:48;100486.03;;;22.05;33.43
72024;BME280;59889;50.700;5.440;2022-10-13T00:06:14;100483.80;;;22.34;33.39
72024;BME280;59889;50.700;5.440;2022-10-13T00:08:38;100478.62;;;22.33;33.39
72024;BME280;59889;50.700;5.440;2022-10-13T00:11:09;100471.53;;;22.12;33.33
72024;BME280;59889;50.700;5.440;2022-10-13T00:13:27;100467.61;;;22.27;33.44
72024;BME280;59889;50.700;5.440;2022-10-13T00:15:53;100466.07;;;22.02;33.46
72024;BME280;59889;50.700;5.440;2022-10-13T00:18:18;100463.95;;;22.23;33.50
72024;BME280;59889;50.700;5.440;2022-10-13T00:20:45;100466.04;;;22.24;33.49
72024;BME280;59889;50.700;5.440;2022-10-13T00:23:08;100468.23;;;22.30;33.40
72024;BME280;59889;50.700;5.440;2022-10-13T00:25:33;100462.41;;;22.02;33.46
72024;BME280;59889;50.700;5.440;2022-10-13T00:27:58;100459.79;;;22.23;33.47
72024;BME280;59889;50.700;5.440;2022-10-13T00:30:23;100461.09;;;22.29;33.42
72024;BME280;59889;50.700;5.440;2022-10-13T00:32:48;100461.92;;;22.00;33.49
72024;BME280;59889;50.700;5.440;2022-10-13T00:35:13;100460.48;;;22.08;33.41
72024;BME280;59889;50.700;5.440;2022-10-13T00:37:38;100454.50;;;22.19;33.28
72024;BME280;59889;50.700;5.440;2022-10-13T00:40:04;100456.27;;;22.06;33.41
72024;BME280;59889;50.700;5.440;2022-10-13T00:42:28;100457.15;;;22.04;33.45
72024;BME280;59889;50.700;5.440;2022-10-13T00:44:59;100455.10;;;22.31;33.43
72024;BME280;59889;50.700;5.440;2022-10-13T00:47:20;100457.58;;;22.04;33.50
72024;BME280;59889;50.700;5.440;2022-10-13T00:49:43;100455.97;;;22.43;33.27
72024;BME280;59889;50.700;5.440;2022-10-13T00:52:08;100458.75;;;22.32;33.42
72024;BME280;59889;50.700;5.440;2022-10-13T00:54:33;100454.00;;;22.23;33.26
72024;BME280;59889;50.700;5.440;2022-10-13T00:56:58;100451.28;;;22.36;33.38
72024;BME280;59889;50.700;5.440;2022-10-13T00:59:26;100446.89;;;22.18;33.33
72024;BME280;59889;50.700;5.440;2022-10-13T01:01:49;100445.56;;;22.26;33.22
72024;BME280;59889;50.700;5.440;2022-10-13T01:04:14;100440.34;;;22.31;33.18
72024;BME280;59889;50.700;5.440;2022-10-13T01:06:39;100434.66;;;22.45;33.27
72024;BME280;59889;50.700;5.440;2022-10-13T01:09:04;100432.13;;;22.29;33.45
72024;BME280;59889;50.700;5.440;2022-10-13T01:11:41;100432.60;;;22.14;33.37
72024;BME280;59889;50.700;5.440;2022-10-13T01:13:58;100432.03;;;22.19;33.32
72024;BME280;59889;50.700;5.440;2022-10-13T01:16:25;100429.29;;;22.15;33.33
72024;BME280;59889;50.700;5.440;2022-10-13T01:18:48;100427.76;;;22.48;33.22
72024;BME280;59889;50.700;5.440;2022-10-13T01:21:17;100426.80;;;22.82;33.10
72024;BME280;59889;50.700;5.440;2022-10-13T01:23:49;100428.82;;;22.43;33.32
72024;BME280;59889;50.700;5.440;2022-10-13T01:26:14;100428.49;;;22.50;33.21
72024;BME280;59889;50.700;5.440;2022-10-13T01:28:34;100425.34;;;22.19;33.29
72024;BME280;59889;50.700;5.440;2022-10-13T01:30:51;100426.05;;;22.42;33.32
72024;BME280;59889;50.700;5.440;2022-10-13T01:33:26;100426.14;;;22.27;33.22
72024;BME280;59889;50.700;5.440;2022-10-13T01:35:52;100424.26;;;22.36;33.40
72024;BME280;59889;50.700;5.440;2022-10-13T01:38:07;100425.86;;;22.55;33.13
72024;BME280;59889;50.700;5.440;2022-10-13T01:40:34;100427.94;;;22.14;33.37
72024;BME280;59889;50.700;5.440;2022-10-13T01:42:58;100426.11;;;22.20;33.29
72024;BME280;59889;50.700;5.440;2022-10-13T01:45:23;100425.82;;;22.45;33.26
72024;BME280;59889;50.700;5.440;2022-10-13T01:47:46;100426.59;;;22.51;33.26
72024;BME280;59889;50.700;5.440;2022-10-13T01:50:10;100429.70;;;22.01;33.54
72024;BME280;59889;50.700;5.440;2022-10-13T01:52:37;100429.94;;;22.05;33.53
72024;BME280;59889;50.700;5.440;2022-10-13T01:55:05;100428.92;;;22.22;33.29
72024;BME280;59889;50.700;5.440;2022-10-13T01:57:29;100427.75;;;22.04;33.50
72024;BME280;59889;50.700;5.440;2022-10-13T01:59:50;100426.64;;;22.40;33.35
72024;BME280;59889;50.700;5.440;2022-10-13T02:02:19;100425.25;;;22.43;33.28
72024;BME280;59889;50.700;5.440;2022-10-13T02:04:47;100424.55;;;22.22;33.25
72024;BME280;59889;50.700;5.440;2022-10-13T02:07:09;100418.63;;;22.22;33.25
72024;BME280;59889;50.700;5.440;2022-10-13T02:09:34;100412.95;;;22.23;33.25
72024;BME280;59889;50.700;5.440;2022-10-13T02:11:58;100407.15;;;22.74;33.20
72024;BME280;59889;50.700;5.440;2022-10-13T02:14:23;100405.07;;;22.51;33.20
72024;BME280;59889;50.700;5.440;2022-10-13T02:16:46;100405.48;;;22.39;33.34
72024;BME280;59889;50.700;5.440;2022-10-13T02:19:14;100399.71;;;22.17;33.30
72024;BME280;59889;50.700;5.440;2022-10-13T02:21:35;100397.51;;;22.29;33.47
72024;BME280;59889;50.700;5.440;2022-10-13T02:24:01;100393.97;;;22.51;33.21
72024;BME280;59889;50.700;5.440;2022-10-13T02:26:25;100388.30;;;22.40;33.34
72024;BME280;59889;50.700;5.440;2022-10-13T02:28:50;100380.65;;;22.50;33.20
72024;BME280;59889;50.700;5.440;2022-10-13T02:31:15;100379.15;;;22.05;33.46
72024;BME280;59889;50.700;5.440;2022-10-13T02:33:40;100375.04;;;22.33;33.42
72024;BME280;59889;50.700;5.440;2022-10-13T02:36:06;100368.06;;;22.26;33.49
72024;BME280;59889;50.700;5.440;2022-10-13T02:38:31;100359.60;;;22.52;33.48
72024;BME280;59889;50.700;5.440;2022-10-13T02:40:55;100353.47;;;22.37;33.36
72024;BME280;59889;50.700;5.440;2022-10-13T02:43:21;100350.48;;;22.15;33.34
72024;BME280;59889;50.700;5.440;2022-10-13T02:45:46;100352.84;;;22.12;33.37
72024;BME280;59889;50.700;5.440;2022-10-13T02:48:11;100353.29;;;22.44;33.29
72024;BME280;59889;50.700;5.440;2022-10-13T02:50:36;100354.05;;;22.03;33.51
72024;BME280;59889;50.700;5.440;2022-10-13T02:53:01;100351.50;;;22.16;33.32
72024;BME280;59889;50.700;5.440;2022-10-13T02:55:26;100353.48;;;22.00;33.53
72024;BME280;59889;50.700;5.440;2022-10-13T02:57:51;100351.71;;;21.98;33.53
72024;BME280;59889;50.700;5.440;2022-10-13T03:00:16;100349.92;;;21.98;33.53
72024;BME280;59889;50.700;5.440;2022-10-13T03:02:41;100348.75;;;22.30;33.47
72024;BME280;59889;50.700;5.440;2022-10-13T03:05:07;100350.50;;;22.29;33.46
72024;BME280;59889;50.700;5.440;2022-10-13T03:07:31;100352.51;;;22.33;33.41
72024;BME280;59889;50.700;5.440;2022-10-13T03:09:56;100347.00;;;21.95;33.59
72024;BME280;59889;50.700;5.440;2022-10-13T03:12:21;100352.37;;;22.03;33.50
72024;BME280;59889;50.700;5.440;2022-10-13T03:14:46;100342.21;;;22.31;33.46
72024;BME280;59889;50.700;5.440;2022-10-13T03:17:11;100343.96;;;22.48;33.51
72024;BME280;59889;50.700;5.440;2022-10-13T03:19:36;100343.97;;;22.23;33.51
72024;BME280;59889;50.700;5.440;2022-10-13T03:22:02;100344.17;;;22.17;33.30
72024;BME280;59889;50.700;5.440;2022-10-13T03:24:27;100344.09;;;22.12;33.39
72024;BME280;59889;50.700;5.440;2022-10-13T03:26:52;100339.75;;;21.99;33.54
72024;BME280;59889;50.700;5.440;2022-10-13T03:29:17;100343.79;;;22.39;33.36
72024;BME280;59889;50.700;5.440;2022-10-13T03:31:42;100342.58;;;22.20;33.58
72024;BME280;59889;50.700;5.440;2022-10-13T03:34:07;100338.05;;;22.06;33.44
72024;BME280;59889;50.700;5.440;2022-10-13T03:36:32;100337.90;;;21.97;33.54
72024;BME280;59889;50.700;5.440;2022-10-13T03:38:57;100338.63;;;21.99;33.54
72024;BME280;59889;50.700;5.440;2022-10-13T03:41:22;100334.52;;;22.01;33.53
72024;BME280;59889;50.700;5.440;2022-10-13T03:43:47;100336.80;;;22.03;33.51
72024;BME280;59889;50.700;5.440;2022-10-13T03:46:13;100331.66;;;22.40;33.32
72024;BME280;59889;50.700;5.440;2022-10-13T03:48:37;100332.74;;;22.15;33.32
72024;BME280;59889;50.700;5.440;2022-10-13T03:51:04;100333.11;;;21.94;33.59
72024;BME280;59889;50.700;5.440;2022-10-13T03:53:27;100330.46;;;21.68;33.61
72024;BME280;59889;50.700;5.440;2022-10-13T03:55:54;100330.38;;;22.22;33.38
72024;BME280;59889;50.700;5.440;2022-10-13T03:58:18;100336.95;;;21.98;34.67
72024;BME280;59889;50.700;5.440;2022-10-13T04:00:42;100334.17;;;22.12;34.90
72024;BME280;59889;50.700;5.440;2022-10-13T04:03:07;100337.68;;;22.09;35.23
72024;BME280;59889;50.700;5.440;2022-10-13T04:05:33;100338.94;;;22.03;35.21
72024;BME280;59889;50.700;5.440;2022-10-13T04:07:57;100337.05;;;21.83;35.04
72024;BME280;59889;50.700;5.440;2022-10-13T04:10:22;100338.75;;;21.82;34.93
72024;BME280;59889;50.700;5.440;2022-10-13T04:12:48;100339.97;;;21.77;34.97
72024;BME280;59889;50.700;5.440;2022-10-13T04:15:14;100334.90;;;21.81;34.99
72024;BME280;59889;50.700;5.440;2022-10-13T04:17:38;100334.65;;;22.04;35.07
72024;BME280;59889;50.700;5.440;2022-10-13T04:20:05;100332.95;;;22.02;35.05
72024;BME280;59889;50.700;5.440;2022-10-13T04:22:28;100334.39;;;22.14;35.30
72024;BME280;59889;50.700;5.440;2022-10-13T04:24:53;100327.95;;;21.77;35.26
72024;BME280;59889;50.700;5.440;2022-10-13T04:27:19;100323.61;;;22.22;35.39
72024;BME280;59889;50.700;5.440;2022-10-13T04:29:44;100321.66;;;21.71;35.50
72024;BME280;59889;50.700;5.440;2022-10-13T04:32:09;100317.70;;;21.98;35.50
72024;BME280;59889;50.700;5.440;2022-10-13T04:34:35;100311.85;;;21.72;35.62
72024;BME280;59889;50.700;5.440;2022-10-13T04:37:00;100307.55;;;21.95;35.68
72024;BME280;59889;50.700;5.440;2022-10-13T04:39:25;100303.73;;;21.78;35.65
72024;BME280;59889;50.700;5.440;2022-10-13T04:41:50;100302.37;;;21.98;35.76
72024;BME280;59889;50.700;5.440;2022-10-13T04:44:16;100301.65;;;22.18;35.80
72024;BME280;59889;50.700;5.440;2022-10-13T04:46:41;100298.41;;;21.76;35.87
72024;BME280;59889;50.700;5.440;2022-10-13T04:49:06;100293.05;;;21.89;35.99
72024;BME280;59889;50.700;5.440;2022-10-13T04:51:31;100286.29;;;21.88;36.06
72024;BME280;59889;50.700;5.440;2022-10-13T04:53:58;100293.95;;;21.61;36.11
72024;BME280;59889;50.700;5.440;2022-10-13T04:56:22;100293.54;;;21.76;36.20
72024;BME280;59889;50.700;5.440;2022-10-13T04:58:47;100292.90;;;21.53;36.14
72024;BME280;59889;50.700;5.440;2022-10-13T05:01:14;100288.86;;;22.03;36.13
72024;BME280;59889;50.700;5.440;2022-10-13T05:03:37;100279.59;;;21.53;36.16
72024;BME280;59889;50.700;5.440;2022-10-13T05:06:03;100283.42;;;22.04;36.11
72024;BME280;59889;50.700;5.440;2022-10-13T05:08:29;100283.33;;;21.58;36.08
72024;BME280;59889;50.700;5.440;2022-10-13T05:10:54;100278.14;;;21.71;36.23
72024;BME280;59889;50.700;5.440;2022-10-13T05:13:20;100275.07;;;22.00;36.14
72024;BME280;59889;50.700;5.440;2022-10-13T05:15:44;100267.34;;;21.81;36.05
72024;BME280;59889;50.700;5.440;2022-10-13T05:18:09;100267.84;;;21.83;36.00
72024;BME280;59889;50.700;5.440;2022-10-13T05:20:34;100271.48;;;21.75;36.11
72024;BME280;59889;50.700;5.440;2022-10-13T05:22:59;100270.70;;;21.81;36.00
72024;BME280;59889;50.700;5.440;2022-10-13T05:25:24;100271.57;;;21.69;36.15
72024;BME280;59889;50.700;5.440;2022-10-13T05:27:50;100269.53;;;21.67;36.18
72024;BME280;59889;50.700;5.440;2022-10-13T05:30:16;100275.89;;;21.98;36.06
72024;BME280;59889;50.700;5.440;2022-10-13T05:32:41;100275.31;;;21.73;36.07
72024;BME280;59889;50.700;5.440;2022-10-13T05:35:06;100270.96;;;21.99;36.04
72024;BME280;59889;50.700;5.440;2022-10-13T05:37:31;100264.19;;;21.77;36.00
72024;BME280;59889;50.700;5.440;2022-10-13T05:39:56;100261.60;;;21.64;36.15
72024;BME280;59889;50.700;5.440;2022-10-13T05:42:21;100257.25;;;21.73;36.04
72024;BME280;59889;50.700;5.440;2022-10-13T05:44:46;100264.04;;;21.90;36.09
72024;BME280;59889;50.700;5.440;2022-10-13T05:47:11;100266.95;;;21.68;36.04
72024;BME280;59889;50.700;5.440;2022-10-13T05:49:36;100270.63;;;21.70;36.05
72024;BME280;59889;50.700;5.440;2022-10-13T05:52:03;100268.41;;;21.69;36.03
72024;BME280;59889;50.700;5.440;2022-10-13T05:54:28;100265.79;;;21.69;36.03
72024;BME280;59889;50.700;5.440;2022-10-13T05:56:55;100253.71;;;22.00;35.90
72024;BME280;59889;50.700;5.440;2022-10-13T05:59:18;100251.07;;;21.90;36.00
72024;BME280;59889;50.700;5.440;2022-10-13T06:01:42;100257.53;;;21.94;35.95
72024;BME280;59889;50.700;5.440;2022-10-13T06:04:09;100247.25;;;21.72;35.91
72024;BME280;59889;50.700;5.440;2022-10-13T06:06:32;100241.99;;;21.78;35.84
72024;BME280;59889;50.700;5.440;2022-10-13T06:08:57;100249.58;;;21.78;35.80
72024;BME280;59889;50.700;5.440;2022-10-13T06:11:22;100248.81;;;21.75;35.82
72024;BME280;59889;50.700;5.440;2022-10-13T06:13:47;100249.84;;;21.71;35.90
72024;BME280;59889;50.700;5.440;2022-10-13T06:16:12;100244.28;;;21.92;35.91
72024;BME280;59889;50.700;5.440;2022-10-13T06:18:37;100243.70;;;21.92;35.92
72024;BME280;59889;50.700;5.440;2022-10-13T06:21:02;100244.51;;;21.66;35.95
72024;BME280;59889;50.700;5.440;2022-10-13T06:23:27;100242.47;;;21.92;35.91
72024;BME280;59889;50.700;5.440;2022-10-13T06:25:53;100239.21;;;21.72;35.84
72024;BME280;59889;50.700;5.440;2022-10-13T06:28:18;100239.93;;;21.67;35.88
72024;BME280;59889;50.700;5.440;2022-10-13T06:30:43;100239.52;;;21.67;35.91
72024;BME280;59889;50.700;5.440;2022-10-13T06:33:09;100245.28;;;21.92;35.86
72024;BME280;59889;50.700;5.440;2022-10-13T06:35:34;100243.90;;;21.93;35.81
72024;BME280;59889;50.700;5.440;2022-10-13T06:37:59;100247.35;;;21.71;35.77
72024;BME280;59889;50.700;5.440;2022-10-13T06:40:24;100248.35;;;21.94;35.79
72024;BME280;59889;50.700;5.440;2022-10-13T06:42:50;100247.60;;;21.72;35.78
72024;BME280;59889;50.700;5.440;2022-10-13T06:45:14;100248.12;;;21.67;35.83
72024;BME280;59889;50.700;5.440;2022-10-13T06:47:39;100250.32;;;21.98;35.72
72024;BME280;59889;50.700;5.440;2022-10-13T06:50:05;100248.55;;;21.94;35.76
72024;BME280;59889;50.700;5.440;2022-10-13T06:52:29;100252.63;;;21.66;35.81
72024;BME280;59889;50.700;5.440;2022-10-13T06:54:55;100256.67;;;21.88;35.82
72024;BME280;59889;50.700;5.440;2022-10-13T06:57:20;100259.70;;;21.73;35.70
72024;BME280;59889;50.700;5.440;2022-10-13T06:59:45;100264.96;;;21.83;35.89
72024;BME280;59889;50.700;5.440;2022-10-13T07:02:10;100269.07;;;21.62;35.84
72024;BME280;59889;50.700;5.440;2022-10-13T07:04:35;100266.78;;;21.89;35.78
72024;BME280;59889;50.700;5.440;2022-10-13T07:07:01;100265.89;;;21.57;35.84
72024;BME280;59889;50.700;5.440;2022-10-13T07:09:26;100271.08;;;21.59;35.84
72024;BME280;59889;50.700;5.440;2022-10-13T07:11:52;100276.29;;;21.62;35.79
72024;BME280;59889;50.700;5.440;2022-10-13T07:14:16;100273.54;;;21.57;35.85
72024;BME280;59889;50.700;5.440;2022-10-13T07:16:42;100273.89;;;21.59;35.80
72024;BME280;59889;50.700;5.440;2022-10-13T07:19:07;100276.16;;;21.84;35.80
72024;BME280;59889;50.700;5.440;2022-10-13T07:21:32;100273.75;;;21.64;35.73
72024;BME280;59889;50.700;5.440;2022-10-13T07:23:57;100273.01;;;21.88;35.73
72024;BME280;59889;50.700;5.440;2022-10-13T07:26:22;100274.99;;;21.67;35.72
72024;BME280;59889;50.700;5.440;2022-10-13T07:28:47;100272.29;;;21.90;35.71
72024;BME280;59889;50.700;5.440;2022-10-13T07:31:15;100276.84;;;21.93;35.65
72024;BME280;59889;50.700;5.440;2022-10-13T07:33:37;100272.46;;;21.71;35.62
72024;BME280;59889;50.700;5.440;2022-10-13T07:36:02;100272.37;;;21.69;35.63
72024;BME280;59889;50.700;5.440;2022-10-13T07:38:27;100269.56;;;21.84;35.76
72024;BME280;59889;50.700;5.440;2022-10-13T07:40:52;100268.45;;;21.58;35.77
72024;BME280;59889;50.700;5.440;2022-10-13T07:43:18;100270.23;;;21.58;35.77
72024;BME280;59889;50.700;5.440;2022-10-13T07:45:42;100268.92;;;21.57;35.79
72024;BME280;59889;50.700;5.440;2022-10-13T07:48:08;100266.64;;;21.57;35.77
72024;BME280;59889;50.700;5.440;2022-10-13T07:50:33;100261.74;;;21.63;35.69
72024;BME280;59889;50.700;5.440;2022-10-13T07:52:58;100261.64;;;21.52;35.84
72024;BME280;59889;50.700;5.440;2022-10-13T07:55:23;100259.07;;;21.80;35.79
72024;BME280;59889;50.700;5.440;2022-10-13T07:57:48;100258.01;;;21.86;35.69
72024;BME280;59889;50.700;5.440;2022-10-13T08:00:13;100257.70;;;21.60;35.71
72024;BME280;59889;50.700;5.440;2022-10-13T08:02:38;100261.18;;;21.60;35.71
72024;BME280;59889;50.700;5.440;2022-10-13T08:05:04;100263.07;;;21.79;35.76
72024;BME280;59889;50.700;5.440;2022-10-13T08:07:28;100262.34;;;21.76;35.78
72024;BME280;59889;50.700;5.440;2022-10-13T08:09:53;100262.99;;;21.78;35.74
72024;BME280;59889;50.700;5.440;2022-10-13T08:12:19;100262.22;;;21.86;35.65
72024;BME280;59889;50.700;5.440;2022-10-13T08:14:44;100261.36;;;21.57;35.70
72024;BME280;59889;50.700;5.440;2022-10-13T08:17:09;100261.28;;;21.65;35.59
72024;BME280;59889;50.700;5.440;2022-10-13T08:19:34;100254.71;;;21.86;35.61
72024;BME280;59889;50.700;5.440;2022-10-13T08:21:59;100249.95;;;21.67;35.56
72024;BME280;59889;50.700;5.440;2022-10-13T08:24:24;100248.98;;;21.59;35.63
72024;BME280;59889;50.700;5.440;2022-10-13T08:26:49;100247.13;;;21.85;35.62
72024;BME280;59889;50.700;5.440;2022-10-13T08:29:14;100248.26;;;21.81;35.66
72024;BME280;59889;50.700;5.440;2022-10-13T08:31:39;100245.91;;;21.84;35.62
72024;BME280;59889;50.700;5.440;2022-10-13T08:34:04;100242.02;;;21.78;35.68
72024;BME280;59889;50.700;5.440;2022-10-13T08:36:29;100244.50;;;21.61;35.59
72024;BME280;59889;50.700;5.440;2022-10-13T08:38:54;100249.48;;;21.85;35.59
72024;BME280;59889;50.700;5.440;2022-10-13T08:41:23;100248.25;;;21.79;35.65
72024;BME280;59889;50.700;5.440;2022-10-13T08:43:48;100251.71;;;21.54;35.66
72024;BME280;59889;50.700;5.440;2022-10-13T08:46:11;100248.18;;;21.74;35.70
72024;BME280;59889;50.700;5.440;2022-10-13T08:48:37;100251.12;;;21.60;35.58
72024;BME280;59889;50.700;5.440;2022-10-13T08:51:02;100250.37;;;21.85;35.56
72024;BME280;59889;50.700;5.440;2022-10-13T08:53:27;100247.35;;;21.61;35.55
72024;BME280;59889;50.700;5.440;2022-10-13T08:55:54;100241.31;;;21.81;35.60
72024;BME280;59889;50.700;5.440;2022-10-13T08:58:22;100242.15;;;21.83;35.55
72024;BME280;59889;50.700;5.440;2022-10-13T09:00:41;100240.58;;;21.78;35.65
72024;BME280;59889;50.700;5.440;2022-10-13T09:03:19;100243.66;;;21.57;35.59
72024;BME280;59889;50.700;5.440;2022-10-13T09:05:36;100245.12;;;21.78;35.62
72024;BME280;59889;50.700;5.440;2022-10-13T09:07:57;100247.97;;;21.76;35.65
72024;BME280;59889;50.700;5.440;2022-10-13T09:10:22;100247.34;;;21.61;35.53
72024;BME280;59889;50.700;5.440;2022-10-13T09:12:47;100242.10;;;21.55;35.59
72024;BME280;59889;50.700;5.440;2022-10-13T09:15:12;100236.55;;;21.36;35.53
72024;BME280;59889;50.700;5.440;2022-10-13T09:17:39;100231.28;;;21.49;35.64
72024;BME280;59889;50.700;5.440;2022-10-13T09:20:05;100230.75;;;21.53;35.62
72024;BME280;59889;50.700;5.440;2022-10-13T09:22:31;100224.85;;;21.77;35.59
72024;BME280;59889;50.700;5.440;2022-10-13T09:25:07;100221.19;;;21.33;35.55
72024;BME280;59889;50.700;5.440;2022-10-13T09:27:17;100215.29;;;21.79;35.57
72024;BME280;59889;50.700;5.440;2022-10-13T09:29:43;100206.54;;;21.79;35.56
72024;BME280;59889;50.700;5.440;2022-10-13T09:32:16;100202.78;;;21.35;35.52
72024;BME280;59889;50.700;5.440;2022-10-13T09:34:33;100198.78;;;21.79;35.55
72024;BME280;59889;50.700;5.440;2022-10-13T09:37:00;100196.17;;;21.62;35.46
72024;BME280;59889;50.700;5.440;2022-10-13T09:39:23;100198.49;;;21.65;35.41
72024;BME280;59889;50.700;5.440;2022-10-13T09:41:48;100204.71;;;21.82;35.50
72024;BME280;59889;50.700;5.440;2022-10-13T09:44:16;100209.82;;;21.83;35.50
72024;BME280;59889;50.700;5.440;2022-10-13T09:46:45;100210.00;;;21.77;35.58
72024;BME280;59889;50.700;5.440;2022-10-13T09:49:06;100209.93;;;21.75;35.60
72024;BME280;59889;50.700;5.440;2022-10-13T09:51:33;100209.37;;;21.30;35.54
72024;BME280;59889;50.700;5.440;2022-10-13T09:53:54;100209.73;;;21.60;35.47
72024;BME280;59889;50.700;5.440;2022-10-13T09:56:23;100206.50;;;21.57;35.49
72024;BME280;59889;50.700;5.440;2022-10-13T09:58:48;100203.54;;;22.00;35.56
72024;BME280;59889;50.700;5.440;2022-10-13T10:01:18;100199.94;;;21.80;35.50
72024;BME280;59889;50.700;5.440;2022-10-13T10:03:36;100197.75;;;21.74;35.57
72024;BME280;59889;50.700;5.440;2022-10-13T10:06:01;100197.63;;;21.50;35.57
72024;BME280;59889;50.700;5.440;2022-10-13T10:08:26;100198.94;;;21.78;35.52
72024;BME280;59889;50.700;5.440;2022-10-13T10:10:49;100200.49;;;21.75;35.55
72024;BME280;59889;50.700;5.440;2022-10-13T10:13:14;100199.15;;;21.75;35.56
72024;BME280;59889;50.700;5.440;2022-10-13T10:15:49;100199.03;;;21.71;35.60
72024;BME280;59889;50.700;5.440;2022-10-13T10:18:10;100196.26;;;21.32;35.50
72024;BME280;59889;50.700;5.440;2022-10-13T10:20:48;100193.94;;;21.79;35.50
72024;BME280;59889;50.700;5.440;2022-10-13T10:22:58;100189.88;;;21.85;35.42
72024;BME280;59889;50.700;5.440;2022-10-13T10:25:28;100187.45;;;21.54;35.52
72024;BME280;59889;50.700;5.440;2022-10-13T10:27:55;100186.25;;;21.83;35.44
72024;BME280;59889;50.700;5.440;2022-10-13T10:30:14;100182.50;;;21.86;35.40
72024;BME280;59889;50.700;5.440;2022-10-13T10:32:41;100183.02;;;21.57;35.44
72024;BME280;59889;50.700;5.440;2022-10-13T10:35:03;100181.83;;;21.85;35.41
72024;BME280;59889;50.700;5.440;2022-10-13T10:37:40;100181.72;;;21.64;35.36
72024;BME280;59889;50.700;5.440;2022-10-13T10:39:59;100175.89;;;21.85;35.39
72024;BME280;59889;50.700;5.440;2022-10-13T10:42:33;100174.48;;;21.60;35.42
72024;BME280;59889;50.700;5.440;2022-10-13T10:44:42;100171.04;;;21.63;35.37
72024;BME280;59889;50.700;5.440;2022-10-13T10:47:12;100174.34;;;21.61;35.40
72024;BME280;59889;50.700;5.440;2022-10-13T10:49:32;100172.25;;;21.63;35.38
72024;BME280;59889;50.700;5.440;2022-10-13T10:51:56;100169.18;;;21.85;35.40
72024;BME280;59889;50.700;5.440;2022-10-13T10:54:28;100165.65;;;21.67;35.32
72024;BME280;59889;50.700;5.440;2022-10-13T10:56:52;100162.30;;;21.62;35.38
72024;BME280;59889;50.700;5.440;2022-10-13T10:59:22;100161.18;;;21.86;35.37
72024;BME280;59889;50.700;5.440;2022-10-13T11:01:40;100159.20;;;21.38;35.38
72024;BME280;59889;50.700;5.440;2022-10-13T11:06:33;100155.97;;;21.67;35.32
72024;BME280;59889;50.700;5.440;2022-10-13T11:08:52;100154.62;;;21.61;35.36
72024;BME280;59889;50.700;5.440;2022-10-13T11:11:28;100150.51;;;21.81;35.43
72024;BME280;59889;50.700;5.440;2022-10-13T11:13:48;100152.06;;;21.90;35.32
72024;BME280;59889;50.700;5.440;2022-10-13T11:20:58;100139.55;;;21.64;35.35
72024;BME280;59889;50.700;5.440;2022-10-13T11:23:30;100139.29;;;21.93;35.25
72024;BME280;59889;50.700;5.440;2022-10-13T11:25:47;100138.93;;;21.63;35.35
72024;BME280;59889;50.700;5.440;2022-10-13T11:30:41;100132.74;;;21.58;35.39
72024;BME280;59889;50.700;5.440;2022-10-13T11:35:28;100131.66;;;21.27;35.50
72024;BME280;59889;50.700;5.440;2022-10-13T11:38:05;100126.71;;;21.86;35.37
72024;BME280;59889;50.700;5.440;2022-10-13T11:40:23;100124.10;;;21.83;35.40
72024;BME280;59889;50.700;5.440;2022-10-13T11:42:56;100122.38;;;21.59;35.39
72024;BME280;59889;50.700;5.440;2022-10-13T11:45:19;100121.38;;;21.62;35.36
72024;BME280;59889;50.700;5.440;2022-10-13T11:47:44;100118.12;;;21.82;35.40
72024;BME280;59889;50.700;5.440;2022-10-13T11:50:06;100114.30;;;21.96;35.22
72024;BME280;59889;50.700;5.440;2022-10-13T11:52:36;100112.11;;;21.60;35.37
72024;BME280;59889;50.700;5.440;2022-10-13T11:54:50;100108.51;;;21.85;35.34
72024;BME280;59889;50.700;5.440;2022-10-13T11:57:19;100106.84;;;21.65;35.29
72024;BME280;59889;50.700;5.440;2022-10-13T11:59:44;100105.37;;;21.63;35.32
72024;BME280;59889;50.700;5.440;2022-10-13T12:02:10;100101.95;;;21.68;35.24
72024;BME280;59889;50.700;5.440;2022-10-13T12:04:29;100101.80;;;21.89;35.29
72024;BME280;59889;50.700;5.440;2022-10-13T12:06:58;100101.65;;;21.87;35.32
72024;BME280;59889;50.700;5.440;2022-10-13T12:09:20;100103.36;;;21.91;35.25
72024;BME280;59889;50.700;5.440;2022-10-13T12:11:45;100103.03;;;21.93;35.24
72024;BME280;59889;50.700;5.440;2022-10-13T12:14:18;100100.05;;;21.67;35.27
72024;BME280;59889;50.700;5.440;2022-10-13T12:16:34;100098.08;;;21.63;35.32
72024;BME280;59889;50.700;5.440;2022-10-13T12:19:07;100097.77;;;21.83;35.35
72024;BME280;59889;50.700;5.440;2022-10-13T12:21:24;100096.88;;;21.55;35.43
72024;BME280;59889;50.700;5.440;2022-10-13T12:23:50;100094.57;;;21.65;35.27
72024;BME280;59889;50.700;5.440;2022-10-13T12:26:16;100095.31;;;21.88;35.29
72024;BME280;59889;50.700;5.440;2022-10-13T12:28:48;100091.85;;;21.84;35.34
72024;BME280;59889;50.700;5.440;2022-10-13T12:31:05;100087.75;;;21.87;35.31
72024;BME280;59889;50.700;5.440;2022-10-13T12:33:33;100086.30;;;21.87;35.28
72024;BME280;59889;50.700;5.440;2022-10-13T12:35:55;100084.09;;;21.60;35.33
72024;BME280;59889;50.700;5.440;2022-10-13T12:38:21;100079.34;;;21.65;35.26
72024;BME280;59889;50.700;5.440;2022-10-13T12:40:46;100076.94;;;21.63;35.28
72024;BME280;59889;50.700;5.440;2022-10-13T12:43:15;100075.25;;;21.61;35.31
72024;BME280;59889;50.700;5.440;2022-10-13T12:45:35;100075.03;;;21.81;35.38
72024;BME280;59889;50.700;5.440;2022-10-13T12:48:00;100074.37;;;21.87;35.28
72024;BME280;59889;50.700;5.440;2022-10-13T12:50:31;100076.43;;;21.81;35.35